createdAt,value
2022-09-26T00:00:16.958Z,19.45
2022-09-26T00:02:43.629Z,22.20
2022-09-26T00:05:10.307Z,19.73
2022-09-26T00:07:37.007Z,19.70
2022-09-26T00:10:04.197Z,17.55
2022-09-26T00:12:30.795Z,22.02
2022-09-26T00:14:57.427Z,19.05
2022-09-26T00:17:25.513Z,25.42
2022-09-26T00:19:52.050Z,23.25
2022-09-26T00:22:18.659Z,18.35
2022-09-26T00:24:45.291Z,21.48
2022-09-26T00:27:11.939Z,23.67
2022-09-26T00:29:39.042Z,17.02
2022-09-26T00:32:05.620Z,16.85
2022-09-26T00:34:33.621Z,17.50
2022-09-26T00:37:00.258Z,19.15
2022-09-26T00:39:26.816Z,15.82
2022-09-26T00:41:53.425Z,18.33
2022-09-26T00:44:42.281Z,18.55
2022-09-26T00:47:31.640Z,24.58
2022-09-26T00:52:32.194Z,20.27
2022-09-26T00:55:01.418Z,19.95
2022-09-26T00:57:33.063Z,20.70
2022-09-26T01:00:03.519Z,16.98
2022-09-26T01:02:30.345Z,22.13
2022-09-26T01:05:00.194Z,21.77
2022-09-26T01:07:28.309Z,21.08
2022-09-26T01:09:55.825Z,21.52
2022-09-26T01:12:22.837Z,25.27
2022-09-26T01:14:52.540Z,26.00
2022-09-26T01:17:19.956Z,22.15
2022-09-26T01:20:00.183Z,20.80
2022-09-26T01:22:59.034Z,19.33
2022-09-26T01:25:42.611Z,22.23
2022-09-26T01:28:34.272Z,20.08
2022-09-26T01:31:13.591Z,29.02
2022-09-26T01:36:37.733Z,22.90
2022-09-26T01:39:22.968Z,18.67
2022-09-26T01:41:58.624Z,20.38
2022-09-26T01:44:31.986Z,22.48
2022-09-26T01:47:05.817Z,19.55
2022-09-26T01:49:37.570Z,21.02
2022-09-26T01:52:09.026Z,23.30
2022-09-26T01:54:39.904Z,22.35
2022-09-26T01:57:11.709Z,23.02
2022-09-26T01:59:44.232Z,17.65
2022-09-26T02:02:17.687Z,23.15
2022-09-26T02:04:48.889Z,21.00
2022-09-26T02:07:17.979Z,21.88
2022-09-26T02:09:47.635Z,21.60
2022-09-26T02:12:19.881Z,22.33
2022-09-26T02:14:48.787Z,20.98
2022-09-26T02:17:21.351Z,22.95
2022-09-26T02:19:54.407Z,27.27
2022-09-26T02:22:21.043Z,25.55
2022-09-26T02:24:47.605Z,30.33
2022-09-26T02:27:14.257Z,37.03
2022-09-26T02:29:40.921Z,28.63
2022-09-26T02:32:12.115Z,27.20
2022-09-26T02:34:41.256Z,38.30
2022-09-26T02:37:09.357Z,50.50
2022-09-26T02:39:37.224Z,65.13
2022-09-26T02:42:25.870Z,37.13
2022-09-26T02:45:11.378Z,35.42
2022-09-26T02:48:08.864Z,36.60
2022-09-26T02:50:52.994Z,16.35
2022-09-26T02:53:32.059Z,60.53
2022-09-26T02:56:08.347Z,13.70
2022-09-26T02:58:47.080Z,12.80
2022-09-26T03:01:17.501Z,10.50
2022-09-26T03:03:50.470Z,13.75
2022-09-26T03:06:23.403Z,14.18
2022-09-26T03:08:51.149Z,7.03
2022-09-26T03:11:21.701Z,6.72
2022-09-26T03:13:51.978Z,8.20
2022-09-26T03:16:20.534Z,7.80
2022-09-26T03:18:58.698Z,6.30
2022-09-26T03:21:27.577Z,8.57
2022-09-26T03:23:54.501Z,12.02
2022-09-26T03:26:22.722Z,10.43
2022-09-26T03:28:49.315Z,5.60
2022-09-26T03:31:16.141Z,6.78
2022-09-26T03:33:42.743Z,11.80
2022-09-26T03:36:09.415Z,8.13
2022-09-26T03:38:37.336Z,3.20
2022-09-26T03:41:04.449Z,2.75
2022-09-26T03:43:31.130Z,2.30
2022-09-26T03:46:01.773Z,2.17
2022-09-26T03:48:28.452Z,3.35
2022-09-26T03:50:55.020Z,2.70
2022-09-26T03:53:21.555Z,5.88
2022-09-26T03:55:49.677Z,5.13
2022-09-26T03:58:16.325Z,4.13
2022-09-26T04:00:42.913Z,4.57
2022-09-26T04:03:09.513Z,5.40
2022-09-26T04:05:36.264Z,8.73
2022-09-26T04:08:02.854Z,7.57
2022-09-26T04:10:29.433Z,7.78
2022-09-26T04:12:57.478Z,8.55
2022-09-26T04:15:24.220Z,8.65
2022-09-26T04:17:50.841Z,9.60
2022-09-26T04:20:22.423Z,10.68
2022-09-26T04:22:48.978Z,9.13
2022-09-26T04:25:15.625Z,11.13
2022-09-26T04:27:42.184Z,9.15
2022-09-26T04:30:11.310Z,9.98
2022-09-26T04:32:38.186Z,9.32
2022-09-26T04:35:05.660Z,9.40
2022-09-26T04:37:32.349Z,9.70
2022-09-26T04:39:58.949Z,9.05
2022-09-26T04:42:25.493Z,10.82
2022-09-26T04:44:52.039Z,9.05
2022-09-26T04:47:22.131Z,17.35
2022-09-26T04:49:48.703Z,9.05
2022-09-26T04:52:15.263Z,8.80
2022-09-26T04:54:41.830Z,11.52
2022-09-26T04:57:08.397Z,9.05
2022-09-26T04:59:34.959Z,10.55
2022-09-26T05:02:01.645Z,9.15
2022-09-26T05:04:29.852Z,8.02
2022-09-26T05:07:12.256Z,11.13
2022-09-26T05:09:38.865Z,10.95
2022-09-26T05:12:06.520Z,7.60
2022-09-26T05:14:36.449Z,8.05
2022-09-26T05:17:08.993Z,8.18
2022-09-26T05:19:37.190Z,7.95
2022-09-26T05:22:04.055Z,10.85
2022-09-26T05:24:30.799Z,10.02
2022-09-26T05:26:57.618Z,8.93
2022-09-26T05:29:24.270Z,9.20
2022-09-26T05:31:51.101Z,8.65
2022-09-26T05:34:20.109Z,11.80
2022-09-26T05:36:48.428Z,8.40
2022-09-26T05:39:15.299Z,8.35
2022-09-26T05:41:41.992Z,11.52
2022-09-26T05:44:08.593Z,14.18
2022-09-26T05:46:39.898Z,13.95
2022-09-26T05:49:07.741Z,8.60
2022-09-26T05:51:34.406Z,8.45
2022-09-26T05:54:02.503Z,10.57
2022-09-26T05:56:29.252Z,10.18
2022-09-26T05:58:55.836Z,10.25
2022-09-26T06:01:22.717Z,9.85
2022-09-26T06:03:56.656Z,10.35
2022-09-26T06:06:23.307Z,10.25
2022-09-26T06:08:51.051Z,10.70
2022-09-26T06:11:20.149Z,8.82
2022-09-26T06:13:46.806Z,8.38
2022-09-26T06:16:16.356Z,8.13
2022-09-26T06:18:44.245Z,10.32
2022-09-26T06:21:12.734Z,11.50
2022-09-26T06:23:39.594Z,7.05
2022-09-26T06:26:13.189Z,7.05
2022-09-26T06:28:41.386Z,6.88
2022-09-26T06:31:12.897Z,13.35
2022-09-26T06:33:39.693Z,18.42
2022-09-26T06:36:08.566Z,17.58
2022-09-26T06:38:39.390Z,10.18
2022-09-26T06:41:06.362Z,8.88
2022-09-26T06:43:33.163Z,9.77
2022-09-26T06:46:01.463Z,10.85
2022-09-26T06:48:28.226Z,10.98
2022-09-26T06:50:56.526Z,11.38
2022-09-26T06:53:23.660Z,9.52
2022-09-26T06:55:50.590Z,12.55
2022-09-26T06:58:17.453Z,9.45
2022-09-26T07:00:44.213Z,12.18
2022-09-26T07:03:12.254Z,9.82
2022-09-26T07:05:39.040Z,9.00
2022-09-26T07:08:07.490Z,10.13
2022-09-26T07:10:34.196Z,12.40
2022-09-26T07:13:01.685Z,9.02
2022-09-26T07:15:31.166Z,8.82
2022-09-26T07:18:02.018Z,8.43
2022-09-26T07:20:32.611Z,9.32
2022-09-26T07:23:00.970Z,8.73
2022-09-26T07:25:27.752Z,8.55
2022-09-26T07:27:54.671Z,9.25
2022-09-26T07:30:21.366Z,9.70
2022-09-26T07:32:51.024Z,10.40
2022-09-26T07:35:18.059Z,10.70
2022-09-26T07:37:51.821Z,11.52
2022-09-26T07:40:18.783Z,14.65
2022-09-26T07:43:04.020Z,10.90
2022-09-26T07:45:32.388Z,10.52
2022-09-26T07:47:59.282Z,13.30
2022-09-26T07:50:26.089Z,11.02
2022-09-26T07:52:57.665Z,11.57
2022-09-26T07:55:26.465Z,13.55
2022-09-26T07:57:53.379Z,12.63
2022-09-26T08:00:20.802Z,10.73
2022-09-26T08:02:47.683Z,11.65
2022-09-26T08:05:16.753Z,10.18
2022-09-26T08:07:43.566Z,10.30
2022-09-26T08:10:17.398Z,12.27
2022-09-26T08:12:44.154Z,9.65
2022-09-26T08:15:11.119Z,10.65
2022-09-26T08:17:41.011Z,10.02
2022-09-26T08:20:08.603Z,14.00
2022-09-26T08:22:35.558Z,9.90
2022-09-26T08:25:02.646Z,12.27
2022-09-26T08:27:34.468Z,9.57
2022-09-26T08:30:01.442Z,9.90
2022-09-26T08:32:28.069Z,10.23
2022-09-26T08:34:55.043Z,10.73
2022-09-26T08:37:26.169Z,9.02
2022-09-26T08:39:53.899Z,8.07
2022-09-26T08:42:33.917Z,7.88
2022-09-26T08:45:28.061Z,8.30
2022-09-26T08:48:03.703Z,7.30
2022-09-26T08:50:40.774Z,6.50
2022-09-26T08:53:14.024Z,4.50
2022-09-26T08:55:43.111Z,4.20
2022-09-26T08:58:17.015Z,4.25
2022-09-26T09:00:47.612Z,3.58
2022-09-26T09:03:25.376Z,3.33
2022-09-26T09:06:02.944Z,3.30
2022-09-26T09:08:36.125Z,3.40
2022-09-26T09:11:15.160Z,3.40
2022-09-26T09:13:58.445Z,3.63
2022-09-26T09:16:39.060Z,4.20
2022-09-26T09:19:18.645Z,3.28
2022-09-26T09:22:03.418Z,3.55
2022-09-26T09:24:46.793Z,8.25
2022-09-26T09:30:18.067Z,3.28
2022-09-26T09:32:51.989Z,5.38
2022-09-26T09:35:28.331Z,4.28
2022-09-26T09:37:55.633Z,5.65
2022-09-26T09:40:28.108Z,2.80
2022-09-26T09:43:01.301Z,3.58
2022-09-26T09:45:33.879Z,3.42
2022-09-26T09:48:02.209Z,2.30
2022-09-26T09:50:39.839Z,2.15
2022-09-26T09:53:16.264Z,2.50
2022-09-26T09:55:54.637Z,2.15
2022-09-26T09:59:00.362Z,2.50
2022-09-26T10:01:31.515Z,2.28
2022-09-26T10:04:06.812Z,2.90
2022-09-26T10:06:45.714Z,3.17
2022-09-26T10:09:39.138Z,2.70
2022-09-26T10:12:13.089Z,2.05
2022-09-26T10:14:44.921Z,2.33
2022-09-26T10:17:19.873Z,2.20
2022-09-26T10:19:48.479Z,3.03
2022-09-26T10:22:24.551Z,2.90
2022-09-26T10:24:53.134Z,2.80
2022-09-26T10:27:25.463Z,3.55
2022-09-26T10:29:59.609Z,4.07
2022-09-26T10:32:26.255Z,4.05
2022-09-26T10:35:19.918Z,6.45
2022-09-26T10:37:59.426Z,3.33
2022-09-26T10:40:28.330Z,2.85
2022-09-26T10:43:18.911Z,2.88
2022-09-26T10:45:46.003Z,4.13
2022-09-26T10:48:13.083Z,3.22
2022-09-26T10:50:49.632Z,3.20
2022-09-26T10:53:16.653Z,3.50
2022-09-26T10:55:48.282Z,2.90
2022-09-26T10:58:18.122Z,4.13
2022-09-26T11:00:47.063Z,6.80
2022-09-26T11:03:15.859Z,4.15
2022-09-26T11:05:46.425Z,3.40
2022-09-26T11:08:13.094Z,4.40
2022-09-26T11:10:40.033Z,4.18
2022-09-26T11:13:16.767Z,3.67
2022-09-26T11:15:52.797Z,3.70
2022-09-26T11:18:23.937Z,7.05
2022-09-26T11:20:57.129Z,3.13
2022-09-26T11:23:31.789Z,2.58
2022-09-26T11:26:14.129Z,5.95
2022-09-26T11:28:45.373Z,2.67
2022-09-26T11:31:21.722Z,2.90
2022-09-26T11:33:48.476Z,2.47
2022-09-26T11:36:33.899Z,2.63
2022-09-26T11:39:12.331Z,5.35
2022-09-26T11:41:51.548Z,2.47
2022-09-26T11:47:27.650Z,2.78
2022-09-26T11:50:14.359Z,5.32
2022-09-26T11:52:56.458Z,3.60
2022-09-26T11:55:37.373Z,2.60
2022-09-26T11:58:14.553Z,4.63
2022-09-26T12:00:54.438Z,2.60
2022-09-26T12:03:48.974Z,3.42
2022-09-26T12:06:24.677Z,3.53
2022-09-26T12:09:13.333Z,2.55
2022-09-26T12:11:47.326Z,2.38
2022-09-26T12:14:31.362Z,2.65
2022-09-26T12:17:05.594Z,2.88
2022-09-26T12:19:40.504Z,2.50
2022-09-26T12:22:15.202Z,7.22
2022-09-26T12:24:53.502Z,2.53
2022-09-26T12:27:25.496Z,2.60
2022-09-26T12:30:03.978Z,3.97
2022-09-26T12:32:54.140Z,6.07
2022-09-26T12:35:29.945Z,3.13
2022-09-26T12:38:14.605Z,5.22
2022-09-26T12:40:56.812Z,2.60
2022-09-26T12:43:45.221Z,2.38
2022-09-26T12:46:26.770Z,2.58
2022-09-26T12:49:09.152Z,2.42
2022-09-26T12:51:42.873Z,2.15
2022-09-26T12:54:25.035Z,2.65
2022-09-26T12:56:59.088Z,2.97
2022-09-26T12:59:43.310Z,2.65
2022-09-26T13:02:44.489Z,2.65
2022-09-26T13:05:29.147Z,2.40
2022-09-26T13:08:09.525Z,2.10
2022-09-26T13:10:45.922Z,4.15
2022-09-26T13:13:32.501Z,2.10
2022-09-26T13:16:22.401Z,2.33
2022-09-26T13:18:53.583Z,2.60
2022-09-26T13:21:27.509Z,4.32
2022-09-26T13:23:59.426Z,1.98
2022-09-26T13:26:28.764Z,2.10
2022-09-26T13:29:23.561Z,4.68
2022-09-26T13:31:50.355Z,3.53
2022-09-26T13:34:20.979Z,2.42
2022-09-26T13:36:49.129Z,2.40
2022-09-26T13:39:25.402Z,2.72
2022-09-26T13:41:57.710Z,2.50
2022-09-26T13:44:39.232Z,2.00
2022-09-26T13:47:17.695Z,2.17
2022-09-26T13:49:55.888Z,2.20
2022-09-26T13:52:41.282Z,2.55
2022-09-26T13:55:13.812Z,2.38
2022-09-26T13:57:47.353Z,3.03
2022-09-26T14:00:41.581Z,3.13
2022-09-26T14:03:37.774Z,2.30
2022-09-26T14:06:24.338Z,2.38
2022-09-26T14:09:13.406Z,5.72
2022-09-26T14:11:48.249Z,3.00
2022-09-26T14:14:38.186Z,3.47
2022-09-26T14:18:00.004Z,3.42
2022-09-26T14:20:28.953Z,4.85
2022-09-26T14:22:57.567Z,4.57
2022-09-26T14:25:56.675Z,2.78
2022-09-26T14:31:18.312Z,2.60
2022-09-26T14:33:46.654Z,2.72
2022-09-26T14:36:30.727Z,2.95
2022-09-26T14:38:57.545Z,3.22
2022-09-26T14:41:28.386Z,2.50
2022-09-26T14:44:01.933Z,2.90
2022-09-26T14:46:31.691Z,2.85
2022-09-26T14:49:02.398Z,3.85
2022-09-26T14:51:34.114Z,2.63
2022-09-26T14:54:05.421Z,2.55
2022-09-26T14:56:42.156Z,3.05
2022-09-26T14:59:39.612Z,2.95
2022-09-26T15:02:25.918Z,3.03
2022-09-26T15:05:12.820Z,4.80
2022-09-26T15:07:45.963Z,4.68
2022-09-26T15:13:45.551Z,6.03
2022-09-26T15:16:21.583Z,5.85
2022-09-26T15:18:52.396Z,11.30
2022-09-26T15:21:26.973Z,9.57
2022-09-26T15:24:04.888Z,10.15
2022-09-26T15:26:36.774Z,7.45
2022-09-26T15:29:06.923Z,6.75
2022-09-26T15:31:40.080Z,12.93
2022-09-26T15:34:14.844Z,7.70
2022-09-26T15:36:44.810Z,4.25
2022-09-26T15:42:35.323Z,3.45
2022-09-26T15:45:15.671Z,6.38
2022-09-26T15:47:45.316Z,3.70
2022-09-26T15:55:45.765Z,3.25
2022-09-26T15:58:18.395Z,6.38
2022-09-26T16:00:58.083Z,2.80
2022-09-26T16:03:46.639Z,8.88
2022-09-26T16:06:24.003Z,5.55
2022-09-26T16:08:57.748Z,4.03
2022-09-26T16:11:35.928Z,6.75
2022-09-26T16:14:18.937Z,3.67
2022-09-26T16:16:55.496Z,6.43
2022-09-26T16:19:46.588Z,4.43
2022-09-26T16:22:41.360Z,3.20
2022-09-26T16:25:34.375Z,5.28
2022-09-26T16:28:35.621Z,6.30
2022-09-26T16:31:37.074Z,3.22
2022-09-26T16:34:19.706Z,3.97
2022-09-26T16:36:56.579Z,5.80
2022-09-26T16:39:28.616Z,5.40
2022-09-26T16:42:16.728Z,3.75
2022-09-26T16:44:51.422Z,3.08
2022-09-26T16:47:41.685Z,2.72
2022-09-26T16:50:25.775Z,3.90
2022-09-26T16:53:07.428Z,2.65
2022-09-26T16:55:46.771Z,3.05
2022-09-26T17:01:00.324Z,3.85
2022-09-26T17:03:32.005Z,5.28
2022-09-26T17:06:19.357Z,6.97
2022-09-26T17:08:53.847Z,4.38
2022-09-26T17:11:39.267Z,7.25
2022-09-26T17:14:58.861Z,6.82
2022-09-26T17:17:40.616Z,3.53
2022-09-26T17:20:18.502Z,4.55
2022-09-26T17:23:07.848Z,5.00
2022-09-26T17:26:01.757Z,5.38
2022-09-26T17:28:51.963Z,4.43
2022-09-26T17:31:28.008Z,5.13
2022-09-26T17:34:03.840Z,3.67
2022-09-26T17:36:30.861Z,4.18
2022-09-26T17:38:57.780Z,4.57
2022-09-26T17:41:24.448Z,7.97
2022-09-26T17:43:51.230Z,4.55
2022-09-26T17:46:23.355Z,4.43
2022-09-26T17:48:49.985Z,4.90
2022-09-26T17:51:19.478Z,4.40
2022-09-26T17:53:50.460Z,4.40
2022-09-26T17:56:18.568Z,3.78
2022-09-26T17:58:50.450Z,6.00
2022-09-26T18:01:23.892Z,5.68
2022-09-26T18:03:54.196Z,7.03
2022-09-26T18:06:24.679Z,4.57
2022-09-26T18:08:51.513Z,8.68
2022-09-26T18:11:19.207Z,6.13
2022-09-26T18:13:50.904Z,5.55
2022-09-26T18:16:20.255Z,25.00
2022-09-26T18:21:15.634Z,6.18
2022-09-26T18:23:47.336Z,5.38
2022-09-26T18:26:22.010Z,7.38
2022-09-26T18:28:48.749Z,7.90
2022-09-26T18:31:15.549Z,5.97
2022-09-26T18:33:43.846Z,8.32
2022-09-26T18:36:11.187Z,9.70
2022-09-26T18:38:37.776Z,5.78
2022-09-26T18:41:05.188Z,7.68
2022-09-26T18:43:31.945Z,7.45
2022-09-26T18:45:58.987Z,11.23
2022-09-26T18:48:27.781Z,9.32
2022-09-26T18:50:56.018Z,8.60
2022-09-26T18:53:24.388Z,6.95
2022-09-26T18:55:51.017Z,8.13
2022-09-26T18:58:18.526Z,8.30
2022-09-26T19:00:45.244Z,7.32
2022-09-26T19:03:13.062Z,6.32
2022-09-26T19:05:39.620Z,7.05
2022-09-26T19:08:18.026Z,13.18
2022-09-26T19:10:44.578Z,9.13
2022-09-26T19:13:11.160Z,8.35
2022-09-26T19:15:39.111Z,8.85
2022-09-26T19:18:06.047Z,9.02
2022-09-26T19:20:34.007Z,8.63
2022-09-26T19:23:00.578Z,7.57
2022-09-26T19:25:28.566Z,8.23
2022-09-26T19:27:55.134Z,10.60
2022-09-26T19:30:22.499Z,10.25
2022-09-26T19:32:51.110Z,12.70
2022-09-26T19:35:22.855Z,8.70
2022-09-26T19:37:49.454Z,13.38
2022-09-26T19:40:18.129Z,11.50
2022-09-26T19:42:47.720Z,9.95
2022-09-26T19:45:15.420Z,6.80
2022-09-26T19:47:45.724Z,11.48
2022-09-26T19:50:16.884Z,8.55
2022-09-26T19:52:45.095Z,8.02
2022-09-26T19:55:14.961Z,9.43
2022-09-26T19:57:47.236Z,7.65
2022-09-26T20:00:15.259Z,9.48
2022-09-26T20:02:54.947Z,10.63
2022-09-26T20:05:25.476Z,7.75
2022-09-26T20:07:53.817Z,10.52
2022-09-26T20:10:22.923Z,8.40
2022-09-26T20:12:51.295Z,6.78
2022-09-26T20:15:20.621Z,7.25
2022-09-26T20:17:47.964Z,16.25
2022-09-26T20:20:16.582Z,15.55
2022-09-26T20:22:43.404Z,8.50
2022-09-26T20:25:14.897Z,6.85
2022-09-26T20:27:41.774Z,7.63
2022-09-26T20:30:14.339Z,7.57
2022-09-26T20:32:41.717Z,9.32
2022-09-26T20:35:11.724Z,8.48
2022-09-26T20:37:40.333Z,10.30
2022-09-26T20:40:14.695Z,8.40
2022-09-26T20:42:42.069Z,7.00
2022-09-26T20:45:16.745Z,9.85
2022-09-26T20:47:44.531Z,7.53
2022-09-26T20:50:15.956Z,8.10
2022-09-26T20:52:42.555Z,6.75
2022-09-26T20:55:14.384Z,11.52
2022-09-26T20:57:40.980Z,7.18
2022-09-26T21:00:10.368Z,14.10
2022-09-26T21:05:15.307Z,8.95
2022-09-26T21:07:42.176Z,8.55
2022-09-26T21:10:21.885Z,11.43
2022-09-26T21:12:48.498Z,8.70
2022-09-26T21:15:15.242Z,6.97
2022-09-26T21:17:43.973Z,9.43
2022-09-26T21:20:15.252Z,18.98
2022-09-26T21:22:42.003Z,11.20
2022-09-26T21:25:15.007Z,11.73
2022-09-26T21:27:41.614Z,10.50
2022-09-26T21:30:12.765Z,7.97
2022-09-26T21:32:45.765Z,9.07
2022-09-26T21:35:15.185Z,7.93
2022-09-26T21:40:09.829Z,7.97
2022-09-26T21:42:37.660Z,6.75
2022-09-26T21:45:07.856Z,7.80
2022-09-26T21:47:34.460Z,8.32
2022-09-26T21:50:03.179Z,8.70
2022-09-26T21:52:35.396Z,8.68
2022-09-26T21:55:02.977Z,7.07
2022-09-26T21:57:33.714Z,7.35
2022-09-26T22:00:00.789Z,8.77
2022-09-26T22:02:27.366Z,10.32
2022-09-26T22:04:53.997Z,10.98
2022-09-26T22:07:23.961Z,9.05
2022-09-26T22:09:50.577Z,12.85
2022-09-26T22:12:17.158Z,10.60
2022-09-26T22:14:43.787Z,9.63
2022-09-26T22:17:10.519Z,11.52
2022-09-26T22:19:37.191Z,10.63
2022-09-26T22:22:04.199Z,9.48
2022-09-26T22:24:32.148Z,13.25
2022-09-26T22:26:59.055Z,9.23
2022-09-26T22:29:25.608Z,8.07
2022-09-26T22:31:52.133Z,15.30
2022-09-26T22:34:19.543Z,12.20
2022-09-26T22:36:46.180Z,18.55
2022-09-26T22:39:12.791Z,11.93
2022-09-26T22:41:40.943Z,14.63
2022-09-26T22:44:07.511Z,17.23
2022-09-26T22:46:34.416Z,14.85
2022-09-26T22:49:01.462Z,15.88
2022-09-26T22:51:28.618Z,25.35
2022-09-26T22:53:55.281Z,14.90
2022-09-26T22:56:21.825Z,12.55
2022-09-26T22:58:51.237Z,14.65
2022-09-26T23:03:45.843Z,12.32
2022-09-26T23:06:12.415Z,14.45
2022-09-26T23:08:39.283Z,15.30
2022-09-26T23:11:07.767Z,14.00
2022-09-26T23:13:35.185Z,14.52
2022-09-26T23:16:08.036Z,13.13
2022-09-26T23:18:35.356Z,16.67
2022-09-26T23:21:07.164Z,21.85
2022-09-26T23:23:34.366Z,17.02
2022-09-26T23:26:01.012Z,16.13
2022-09-26T23:28:27.978Z,14.73
2022-09-26T23:30:54.627Z,16.60
2022-09-26T23:33:22.817Z,17.55
2022-09-26T23:35:58.648Z,15.30
2022-09-26T23:38:25.344Z,15.48
2022-09-26T23:40:52.030Z,17.92
2022-09-26T23:43:18.728Z,18.83
2022-09-26T23:45:45.447Z,16.05
2022-09-26T23:48:12.285Z,18.58
2022-09-26T23:50:40.275Z,18.27
2022-09-26T23:53:06.990Z,27.60
2022-09-26T23:55:33.685Z,18.35
2022-09-26T23:58:00.212Z,19.17
